createdAt,value
2018-12-19T00:00:09.685Z,0.90
2018-12-19T00:02:38.890Z,0.80
2018-12-19T00:07:47.391Z,0.90
2018-12-19T00:10:16.591Z,0.80
2018-12-19T00:12:45.742Z,0.90
2018-12-19T00:15:14.904Z,1.10
2018-12-19T00:20:24.805Z,0.80
2018-12-19T00:22:53.972Z,0.70
2018-12-19T00:25:23.186Z,0.80
2018-12-19T00:30:31.738Z,0.80
2018-12-19T00:33:00.838Z,0.90
2018-12-19T00:38:09.013Z,0.60
2018-12-19T00:48:11.137Z,0.60
2018-12-19T00:53:18.472Z,0.40
2018-12-19T00:58:26.599Z,0.50
2018-12-19T01:00:55.776Z,0.60
2018-12-19T01:03:25.050Z,0.80
2018-12-19T01:05:54.191Z,0.70
2018-12-19T01:08:23.424Z,0.50
2018-12-19T01:10:52.572Z,0.40
2018-12-19T01:13:22.880Z,0.30
2018-12-19T01:15:52.012Z,0.30
2018-12-19T01:18:21.132Z,0.60
2018-12-19T01:20:50.337Z,0.40
2018-12-19T01:23:19.701Z,0.50
2018-12-19T01:25:49.136Z,0.60
2018-12-19T01:28:18.391Z,0.50
2018-12-19T01:30:47.504Z,0.40
2018-12-19T01:33:17.720Z,0.50
2018-12-19T01:35:46.871Z,0.50
2018-12-19T01:38:17.553Z,0.50
2018-12-19T01:40:46.673Z,0.50
2018-12-19T01:45:54.964Z,0.40
2018-12-19T01:51:01.781Z,0.30
2018-12-19T01:53:30.937Z,0.40
2018-12-19T01:56:00.428Z,0.30
2018-12-19T02:01:07.665Z,0.20
2018-12-19T02:03:36.804Z,0.30
2018-12-19T02:08:45.113Z,0.40
2018-12-19T02:11:14.342Z,0.20
2018-12-19T02:13:43.596Z,0.10
2018-12-19T02:18:52.631Z,0.10
2018-12-19T02:21:21.865Z,0.20
2018-12-19T02:23:51.168Z,0.30
2018-12-19T02:28:58.937Z,0.20
2018-12-19T02:31:27.972Z,0.10
2018-12-19T02:36:35.974Z,0.10
2018-12-19T02:39:08.857Z,0.00
2018-12-19T02:44:17.220Z,0.00
2018-12-19T02:46:46.453Z,0.30
2018-12-19T02:51:53.871Z,-0.20
2018-12-19T02:54:23.384Z,-0.30
2018-12-19T02:56:52.480Z,-0.30
2018-12-19T02:59:21.607Z,-0.20
2018-12-19T03:01:50.721Z,-0.20
2018-12-19T03:04:19.955Z,-0.30
2018-12-19T03:06:49.111Z,-0.30
2018-12-19T03:09:18.312Z,-0.40
2018-12-19T03:11:47.430Z,-0.40
2018-12-19T03:14:16.605Z,-0.40
2018-12-19T03:16:45.832Z,-0.40
2018-12-19T03:21:54.039Z,-0.30
2018-12-19T03:24:23.584Z,-0.20
2018-12-19T03:29:32.727Z,-0.10
2018-12-19T03:34:40.950Z,0.20
2018-12-19T03:37:10.065Z,0.00
2018-12-19T03:39:39.278Z,0.00
2018-12-19T03:42:09.670Z,0.10
2018-12-19T03:44:38.896Z,0.20
2018-12-19T03:47:08.107Z,0.20
2018-12-19T03:52:15.031Z,0.40
2018-12-19T03:54:44.744Z,0.30
2018-12-19T03:57:14.932Z,0.30
2018-12-19T03:59:56.083Z,0.20
2018-12-19T04:02:25.227Z,0.30
2018-12-19T04:04:54.372Z,0.40
2018-12-19T04:10:02.789Z,0.40
2018-12-19T04:12:31.972Z,0.30
2018-12-19T04:15:01.301Z,0.40
2018-12-19T04:17:30.488Z,0.20
2018-12-19T04:19:59.705Z,0.00
2018-12-19T04:22:28.831Z,0.00
2018-12-19T04:24:57.982Z,-0.10
2018-12-19T04:27:27.301Z,-0.10
2018-12-19T04:29:56.741Z,0.10
2018-12-19T04:32:26.337Z,0.50
2018-12-19T04:34:55.487Z,0.30
2018-12-19T04:37:24.692Z,0.20
2018-12-19T04:39:53.834Z,0.30
2018-12-19T04:42:23.005Z,0.40
2018-12-19T04:44:52.176Z,0.50
2018-12-19T04:47:22.305Z,0.40
2018-12-19T04:49:51.491Z,0.70
2018-12-19T04:52:20.568Z,0.30
2018-12-19T04:54:49.761Z,0.40
2018-12-19T04:59:57.145Z,0.20
2018-12-19T05:02:26.295Z,0.30
2018-12-19T05:04:55.520Z,0.40
2018-12-19T05:07:25.001Z,0.30
2018-12-19T05:09:54.212Z,0.40
2018-12-19T05:12:24.472Z,0.60
2018-12-19T05:14:53.721Z,0.80
2018-12-19T05:17:22.868Z,0.60
2018-12-19T05:22:32.155Z,0.70
2018-12-19T05:25:01.488Z,0.90
2018-12-19T05:27:30.652Z,0.90
2018-12-19T05:32:38.936Z,0.60
2018-12-19T05:35:08.320Z,1.20
2018-12-19T05:37:38.578Z,1.50
2018-12-19T05:40:09.236Z,1.40
2018-12-19T05:42:38.457Z,1.40
2018-12-19T05:45:09.124Z,1.40
2018-12-19T05:47:38.398Z,1.30
2018-12-19T05:50:08.884Z,1.20
2018-12-19T05:52:38.088Z,1.40
2018-12-19T05:55:07.417Z,1.10
2018-12-19T06:00:15.291Z,1.00
2018-12-19T06:02:44.381Z,1.10
2018-12-19T06:05:13.524Z,1.20
2018-12-19T06:07:43.648Z,1.00
2018-12-19T06:12:51.165Z,0.80
2018-12-19T06:15:20.295Z,0.80
2018-12-19T06:20:28.089Z,1.00
2018-12-19T06:22:57.238Z,1.00
2018-12-19T06:25:26.592Z,1.00
2018-12-19T06:27:56.566Z,1.00
2018-12-19T06:30:26.484Z,0.90
2018-12-19T06:32:55.717Z,1.00
2018-12-19T06:35:24.862Z,1.10
2018-12-19T06:40:33.156Z,0.90
2018-12-19T06:43:02.241Z,0.90
2018-12-19T06:45:31.405Z,0.90
2018-12-19T06:48:02.005Z,1.10
2018-12-19T06:50:31.132Z,1.00
2018-12-19T06:53:00.249Z,1.00
2018-12-19T06:55:30.529Z,1.10
2018-12-19T06:57:59.675Z,1.20
2018-12-19T07:03:06.958Z,1.40
2018-12-19T07:05:36.202Z,1.40
2018-12-19T07:08:05.368Z,1.30
2018-12-19T07:10:39.062Z,1.70
2018-12-19T07:13:05.543Z,1.90
2018-12-19T07:15:34.872Z,2.20
2018-12-19T07:18:04.037Z,2.60
2018-12-19T07:20:33.176Z,2.60
2018-12-19T07:23:02.419Z,2.40
2018-12-19T07:25:31.651Z,2.10
2018-12-19T07:30:39.959Z,1.80
2018-12-19T07:33:09.297Z,1.90
2018-12-19T07:35:38.435Z,1.80
2018-12-19T07:38:07.513Z,2.10
2018-12-19T07:40:36.858Z,1.90
2018-12-19T07:43:06.166Z,2.00
2018-12-19T07:48:14.911Z,2.10
2018-12-19T07:53:22.421Z,2.00
2018-12-19T07:55:51.925Z,2.40
2018-12-19T07:58:21.298Z,2.50
2018-12-19T08:00:50.553Z,2.40
2018-12-19T08:03:19.764Z,2.10
2018-12-19T08:05:48.923Z,2.00
2018-12-19T08:08:18.882Z,2.00
2018-12-19T08:10:52.123Z,2.00
2018-12-19T08:13:19.281Z,2.10
2018-12-19T08:15:48.501Z,2.20
2018-12-19T08:18:24.308Z,2.30
2018-12-19T08:20:53.362Z,2.30
2018-12-19T08:23:22.616Z,2.30
2018-12-19T08:25:51.906Z,2.40
2018-12-19T08:28:20.992Z,2.50
2018-12-19T08:30:50.084Z,2.70
2018-12-19T08:33:19.225Z,2.60
2018-12-19T08:35:48.378Z,2.60
2018-12-19T08:38:17.434Z,2.50
2018-12-19T08:40:47.496Z,2.60
2018-12-19T08:43:18.591Z,2.80
2018-12-19T08:45:48.168Z,2.80
2018-12-19T08:48:19.187Z,2.70
2018-12-19T08:50:48.306Z,2.70
2018-12-19T08:53:18.996Z,2.90
2018-12-19T08:55:48.368Z,3.10
2018-12-19T08:58:17.827Z,3.10
2018-12-19T09:03:28.839Z,3.50
2018-12-19T09:08:37.182Z,3.20
2018-12-19T09:11:06.525Z,3.20
2018-12-19T09:13:35.726Z,3.20
2018-12-19T09:16:05.205Z,3.30
2018-12-19T09:18:34.678Z,3.40
2018-12-19T09:21:04.005Z,3.30
2018-12-19T09:23:33.276Z,3.20
2018-12-19T09:26:03.743Z,3.30
2018-12-19T09:28:34.031Z,3.30
2018-12-19T09:31:03.254Z,3.40
2018-12-19T09:33:32.561Z,3.50
2018-12-19T09:36:01.676Z,3.40
2018-12-19T09:38:30.753Z,3.40
2018-12-19T09:40:59.957Z,3.50
2018-12-19T09:43:29.093Z,3.60
2018-12-19T09:45:58.423Z,3.70
2018-12-19T09:51:05.916Z,3.50
2018-12-19T09:53:35.060Z,3.60
2018-12-19T09:56:04.137Z,3.60
2018-12-19T09:58:33.342Z,3.60
2018-12-19T10:01:05.263Z,3.60
2018-12-19T10:03:33.757Z,3.80
2018-12-19T10:06:02.970Z,4.10
2018-12-19T10:08:32.145Z,4.10
2018-12-19T10:11:01.354Z,4.00
2018-12-19T10:13:30.558Z,4.00
2018-12-19T10:15:59.651Z,4.10
2018-12-19T10:18:28.846Z,4.10
2018-12-19T10:20:58.196Z,4.10
2018-12-19T10:23:27.472Z,4.00
2018-12-19T10:26:02.026Z,4.10
2018-12-19T10:28:34.828Z,4.20
2018-12-19T10:31:03.973Z,4.30
2018-12-19T10:33:33.028Z,4.60
2018-12-19T10:36:02.136Z,4.70
2018-12-19T10:38:31.353Z,4.60
2018-12-19T10:41:00.998Z,4.60
2018-12-19T10:43:30.136Z,4.30
2018-12-19T10:45:59.272Z,4.10
2018-12-19T10:48:28.360Z,4.10
2018-12-19T10:53:36.580Z,4.10
2018-12-19T10:56:05.802Z,4.20
2018-12-19T10:58:36.818Z,4.40
2018-12-19T11:03:45.512Z,4.40
2018-12-19T11:08:59.256Z,4.40
2018-12-19T11:11:32.274Z,4.30
2018-12-19T11:13:59.608Z,4.40
2018-12-19T11:19:07.937Z,4.40
2018-12-19T11:24:16.152Z,4.50
2018-12-19T11:26:45.483Z,4.40
2018-12-19T11:29:14.824Z,4.40
2018-12-19T11:31:44.110Z,4.50
2018-12-19T11:34:13.180Z,4.40
2018-12-19T11:36:43.388Z,4.50
2018-12-19T11:39:12.535Z,4.40
2018-12-19T11:41:41.636Z,4.50
2018-12-19T11:44:11.000Z,4.50
2018-12-19T11:46:40.201Z,4.50
2018-12-19T11:49:09.446Z,4.40
2018-12-19T11:51:38.517Z,4.50
2018-12-19T11:56:46.221Z,4.50
2018-12-19T11:59:15.465Z,4.50
2018-12-19T12:01:44.641Z,4.50
2018-12-19T12:04:13.851Z,4.50
2018-12-19T12:06:43.130Z,4.60
2018-12-19T12:09:12.275Z,4.60
2018-12-19T12:11:45.595Z,4.60
2018-12-19T12:16:51.832Z,4.80
2018-12-19T12:19:22.276Z,4.90
2018-12-19T12:21:51.423Z,5.00
2018-12-19T12:24:20.527Z,5.20
2018-12-19T12:26:50.700Z,5.20
2018-12-19T12:29:20.587Z,5.40
2018-12-19T12:31:50.572Z,5.30
2018-12-19T12:34:20.680Z,5.20
2018-12-19T12:36:50.712Z,5.30
2018-12-19T12:39:20.920Z,5.10
2018-12-19T12:44:30.330Z,5.10
2018-12-19T12:46:59.561Z,5.00
2018-12-19T12:49:28.668Z,4.90
2018-12-19T12:54:36.924Z,4.80
2018-12-19T12:57:06.762Z,4.80
2018-12-19T12:59:35.885Z,4.90
2018-12-19T13:02:04.992Z,4.90
2018-12-19T13:04:34.089Z,5.00
2018-12-19T13:07:03.232Z,4.90
2018-12-19T13:09:32.394Z,5.00
2018-12-19T13:12:01.552Z,4.90
2018-12-19T13:14:30.865Z,5.00
2018-12-19T13:17:00.152Z,5.00
2018-12-19T13:19:29.235Z,4.80
2018-12-19T13:21:59.680Z,4.60
2018-12-19T13:24:28.845Z,4.70
2018-12-19T13:26:58.079Z,4.60
2018-12-19T13:29:27.388Z,4.50
2018-12-19T13:31:56.522Z,4.60
2018-12-19T13:34:25.720Z,4.50
2018-12-19T13:39:33.944Z,4.40
2018-12-19T13:42:05.700Z,4.50
2018-12-19T13:44:34.293Z,4.40
2018-12-19T13:49:41.150Z,4.50
2018-12-19T13:52:10.543Z,4.60
2018-12-19T13:54:39.716Z,4.50
2018-12-19T13:57:08.952Z,4.80
2018-12-19T13:59:38.128Z,4.80
2018-12-19T14:02:07.372Z,4.60
2018-12-19T14:04:36.738Z,4.70
2018-12-19T14:07:06.955Z,4.50
2018-12-19T14:09:36.209Z,4.50
2018-12-19T14:12:12.126Z,4.40
2018-12-19T14:14:38.451Z,4.50
2018-12-19T14:17:07.904Z,4.40
2018-12-19T14:19:37.244Z,4.40
2018-12-19T14:22:06.428Z,4.50
2018-12-19T14:24:35.489Z,4.40
2018-12-19T14:27:04.688Z,4.30
2018-12-19T14:29:33.772Z,4.30
2018-12-19T14:32:02.868Z,4.40
2018-12-19T14:34:31.985Z,4.40
2018-12-19T14:37:01.158Z,4.50
2018-12-19T14:39:30.396Z,4.50
2018-12-19T14:41:59.528Z,4.60
2018-12-19T14:44:28.720Z,4.50
2018-12-19T14:49:37.768Z,4.30
2018-12-19T14:52:08.497Z,4.30
2018-12-19T14:54:37.613Z,4.40
2018-12-19T14:57:06.762Z,4.40
2018-12-19T14:59:35.996Z,4.30
2018-12-19T15:02:05.308Z,4.40
2018-12-19T15:07:13.742Z,4.70
2018-12-19T15:09:42.910Z,4.40
2018-12-19T15:12:12.025Z,4.20
2018-12-19T15:14:41.095Z,4.30
2018-12-19T15:17:14.000Z,4.50
2018-12-19T15:19:42.297Z,4.40
2018-12-19T15:22:11.408Z,4.40
2018-12-19T15:24:41.597Z,4.50
2018-12-19T15:27:10.796Z,4.40
2018-12-19T15:29:40.163Z,4.20
2018-12-19T15:32:09.247Z,4.20
2018-12-19T15:34:38.892Z,4.20
2018-12-19T15:37:08.132Z,4.20
2018-12-19T15:39:37.316Z,4.60
2018-12-19T15:44:45.148Z,4.60
2018-12-19T15:49:52.091Z,4.50
2018-12-19T15:52:21.287Z,4.40
2018-12-19T15:54:50.432Z,4.40
2018-12-19T15:57:19.510Z,4.40
2018-12-19T15:59:48.703Z,4.30
2018-12-19T16:02:18.147Z,4.30
2018-12-19T16:04:47.300Z,4.20
2018-12-19T16:07:16.569Z,4.20
2018-12-19T16:12:24.873Z,4.20
2018-12-19T16:14:53.917Z,4.20
2018-12-19T16:17:23.502Z,4.20
2018-12-19T16:22:33.427Z,4.20
2018-12-19T16:25:02.560Z,4.10
2018-12-19T16:27:31.754Z,4.10
2018-12-19T16:30:00.986Z,4.10
2018-12-19T16:32:30.104Z,4.00
2018-12-19T16:34:59.177Z,3.90
2018-12-19T16:40:07.267Z,4.00
2018-12-19T16:42:36.458Z,3.90
2018-12-19T16:45:06.611Z,3.80
2018-12-19T16:47:35.717Z,3.70
2018-12-19T16:50:06.275Z,4.40
2018-12-19T16:55:13.741Z,9.70
2018-12-19T16:57:44.105Z,9.20
2018-12-19T17:00:13.239Z,8.90
2018-12-19T17:02:42.349Z,8.70
2018-12-19T17:05:12.753Z,7.90
2018-12-19T17:07:41.896Z,6.80
2018-12-19T17:10:11.110Z,5.90
2018-12-19T17:15:20.941Z,5.00
2018-12-19T17:17:50.033Z,4.80
2018-12-19T17:20:19.152Z,4.60
2018-12-19T17:22:49.255Z,4.70
2018-12-19T17:27:57.601Z,4.40
2018-12-19T17:30:27.886Z,4.10
2018-12-19T17:32:56.974Z,4.30
2018-12-19T17:35:26.404Z,4.30
2018-12-19T17:37:55.596Z,4.20
2018-12-19T17:40:24.920Z,4.10
2018-12-19T17:42:59.412Z,4.00
2018-12-19T17:45:26.706Z,4.10
2018-12-19T17:50:34.168Z,3.90
2018-12-19T17:53:03.364Z,3.90
2018-12-19T17:55:32.496Z,4.10
2018-12-19T17:58:01.598Z,4.00
2018-12-19T18:03:09.509Z,3.90
2018-12-19T18:05:38.691Z,3.90
2018-12-19T18:08:07.821Z,3.90
2018-12-19T18:13:16.154Z,3.90
2018-12-19T18:15:45.477Z,3.80
2018-12-19T18:18:14.591Z,3.80
2018-12-19T18:20:43.851Z,3.70
2018-12-19T18:23:12.977Z,3.70
2018-12-19T18:25:42.132Z,3.70
2018-12-19T18:28:11.245Z,3.50
2018-12-19T18:33:19.060Z,3.30
2018-12-19T18:35:48.348Z,3.40
2018-12-19T18:38:18.109Z,3.40
2018-12-19T18:40:48.384Z,3.40
2018-12-19T18:43:17.934Z,3.40
2018-12-19T18:45:47.188Z,3.50
2018-12-19T18:50:55.405Z,3.20
2018-12-19T18:56:04.316Z,3.10
2018-12-19T18:58:34.940Z,3.00
2018-12-19T19:01:04.327Z,2.90
2018-12-19T19:03:33.419Z,3.00
2018-12-19T19:06:03.942Z,3.10
2018-12-19T19:11:12.216Z,3.10
2018-12-19T19:13:41.468Z,3.20
2018-12-19T19:16:10.525Z,3.20
2018-12-19T19:18:39.631Z,3.20
2018-12-19T19:21:08.787Z,3.50
2018-12-19T19:23:37.908Z,3.70
2018-12-19T19:26:07.173Z,3.90
2018-12-19T19:28:36.269Z,3.80
2018-12-19T19:31:07.487Z,3.30
2018-12-19T19:33:36.661Z,3.30
2018-12-19T19:36:06.000Z,3.20
2018-12-19T19:38:36.378Z,3.20
2018-12-19T19:41:05.541Z,3.10
2018-12-19T19:46:13.937Z,2.90
2018-12-19T19:51:21.410Z,3.20
2018-12-19T19:53:50.729Z,3.10
2018-12-19T19:56:19.836Z,3.00
2018-12-19T19:58:49.051Z,2.90
2018-12-19T20:01:18.148Z,2.80
2018-12-19T20:03:47.324Z,3.30
2018-12-19T20:06:16.516Z,3.20
2018-12-19T20:11:25.324Z,3.30
2018-12-19T20:13:54.444Z,3.20
2018-12-19T20:16:23.598Z,3.30
2018-12-19T20:18:52.764Z,3.30
2018-12-19T20:21:21.978Z,3.30
2018-12-19T20:23:51.336Z,3.30
2018-12-19T20:26:20.756Z,3.30
2018-12-19T20:31:30.729Z,3.20
2018-12-19T20:33:59.839Z,3.20
2018-12-19T20:36:28.997Z,3.10
2018-12-19T20:38:58.129Z,3.20
2018-12-19T20:44:09.824Z,3.10
2018-12-19T20:46:39.057Z,3.10
2018-12-19T20:49:08.339Z,3.20
2018-12-19T20:51:37.502Z,3.30
2018-12-19T20:56:45.841Z,3.00
2018-12-19T21:01:53.057Z,3.00
2018-12-19T21:04:22.232Z,3.30
2018-12-19T21:06:51.260Z,3.40
2018-12-19T21:09:20.522Z,3.40
2018-12-19T21:14:29.065Z,3.20
2018-12-19T21:17:03.610Z,3.30
2018-12-19T21:22:12.205Z,3.20
2018-12-19T21:24:41.404Z,3.10
2018-12-19T21:27:10.692Z,2.90
2018-12-19T21:29:39.943Z,2.80
2018-12-19T21:32:10.413Z,2.90
2018-12-19T21:34:39.597Z,2.90
2018-12-19T21:37:08.752Z,3.00
2018-12-19T21:39:37.901Z,3.00
2018-12-19T21:42:07.184Z,3.00
2018-12-19T21:44:36.365Z,3.10
2018-12-19T21:47:05.496Z,3.10
2018-12-19T21:49:34.649Z,3.10
2018-12-19T21:52:05.313Z,3.00
2018-12-19T21:54:34.500Z,3.10
2018-12-19T21:59:41.844Z,2.90
2018-12-19T22:04:50.303Z,3.00
2018-12-19T22:07:19.562Z,3.10
2018-12-19T22:09:48.709Z,3.00
2018-12-19T22:12:18.024Z,3.00
2018-12-19T22:14:47.368Z,2.90
2018-12-19T22:17:21.714Z,2.90
2018-12-19T22:19:50.820Z,3.00
2018-12-19T22:22:20.050Z,3.00
2018-12-19T22:27:27.092Z,2.90
2018-12-19T22:29:56.435Z,2.90
2018-12-19T22:35:06.693Z,2.90
2018-12-19T22:37:35.880Z,2.70
2018-12-19T22:40:06.326Z,2.80
2018-12-19T22:42:35.536Z,2.80
2018-12-19T22:45:05.649Z,2.90
2018-12-19T22:47:34.867Z,2.80
2018-12-19T22:50:04.894Z,2.90
2018-12-19T22:52:34.567Z,2.90
2018-12-19T22:57:42.061Z,2.90
2018-12-19T23:00:16.875Z,3.00
2018-12-19T23:02:52.068Z,3.20
2018-12-19T23:05:26.486Z,3.30
2018-12-19T23:07:55.699Z,3.30
2018-12-19T23:13:04.493Z,3.20
2018-12-19T23:15:33.658Z,3.10
2018-12-19T23:18:08.147Z,3.10
2018-12-19T23:20:37.374Z,3.30
2018-12-19T23:23:08.028Z,3.40
2018-12-19T23:25:37.237Z,3.40
2018-12-19T23:28:06.608Z,3.40
2018-12-19T23:30:35.829Z,3.40
2018-12-19T23:35:44.363Z,3.40
2018-12-19T23:38:13.695Z,3.30
2018-12-19T23:43:22.075Z,3.80
2018-12-19T23:45:51.561Z,3.90
2018-12-19T23:48:21.006Z,3.70
2018-12-19T23:53:28.371Z,3.40
2018-12-19T23:55:57.477Z,3.50
